createdAt,value
2022-11-07T00:00:44.902Z,1.80
2022-11-07T00:03:16.158Z,1.80
2022-11-07T00:05:50.203Z,1.63
2022-11-07T00:08:17.650Z,2.07
2022-11-07T00:10:44.975Z,1.90
2022-11-07T00:13:19.202Z,1.63
2022-11-07T00:15:46.547Z,1.70
2022-11-07T00:18:16.738Z,1.80
2022-11-07T00:20:53.207Z,1.80
2022-11-07T00:23:20.599Z,1.83
2022-11-07T00:25:47.981Z,1.80
2022-11-07T00:28:22.203Z,2.00
2022-11-07T00:30:49.630Z,1.80
2022-11-07T00:33:17.136Z,1.40
2022-11-07T00:35:51.183Z,1.90
2022-11-07T00:38:18.601Z,1.87
2022-11-07T00:41:02.204Z,1.70
2022-11-07T00:43:36.385Z,1.80
2022-11-07T00:46:13.163Z,1.80
2022-11-07T00:48:40.861Z,1.60
2022-11-07T00:51:10.571Z,1.30
2022-11-07T00:53:45.228Z,1.40
2022-11-07T00:56:15.940Z,1.90
2022-11-07T00:58:44.392Z,1.80
2022-11-07T01:01:34.359Z,1.93
2022-11-07T01:04:20.402Z,1.97
2022-11-07T01:06:54.193Z,1.57
2022-11-07T01:09:22.381Z,1.37
2022-11-07T01:11:50.237Z,1.60
2022-11-07T01:14:26.198Z,1.50
2022-11-07T01:16:53.590Z,1.53
2022-11-07T01:19:22.954Z,1.67
2022-11-07T01:21:57.208Z,1.60
2022-11-07T01:24:24.605Z,1.40
2022-11-07T01:26:52.089Z,1.80
2022-11-07T01:29:26.214Z,1.57
2022-11-07T01:32:00.324Z,1.53
2022-11-07T01:34:34.231Z,1.33
2022-11-07T01:37:01.669Z,1.60
2022-11-07T01:39:29.171Z,1.10
2022-11-07T01:42:03.244Z,1.50
2022-11-07T01:44:49.276Z,1.40
2022-11-07T01:47:25.876Z,1.20
2022-11-07T01:49:54.513Z,1.50
2022-11-07T01:52:37.872Z,1.20
2022-11-07T01:55:18.355Z,1.20
2022-11-07T01:58:00.879Z,1.27
2022-11-07T02:00:30.023Z,1.50
2022-11-07T02:03:18.094Z,1.57
2022-11-07T02:05:53.661Z,1.47
2022-11-07T02:08:28.876Z,1.60
2022-11-07T02:11:00.170Z,1.67
2022-11-07T02:13:36.896Z,1.30
2022-11-07T02:16:05.730Z,1.47
2022-11-07T02:18:43.861Z,1.67
2022-11-07T02:21:40.986Z,1.40
2022-11-07T02:24:14.890Z,1.37
2022-11-07T02:26:43.701Z,1.53
2022-11-07T02:29:12.997Z,1.60
2022-11-07T02:31:46.898Z,1.33
2022-11-07T02:34:14.330Z,1.37
2022-11-07T02:36:42.243Z,1.17
2022-11-07T02:39:16.864Z,1.50
2022-11-07T02:41:44.835Z,1.53
2022-11-07T02:44:26.857Z,1.50
2022-11-07T02:46:54.528Z,1.70
2022-11-07T02:49:25.040Z,1.40
2022-11-07T02:51:58.864Z,1.33
2022-11-07T02:54:26.392Z,1.40
2022-11-07T02:56:53.782Z,1.10
2022-11-07T02:59:27.878Z,1.67
2022-11-07T03:01:55.387Z,1.30
2022-11-07T03:04:24.193Z,1.50
2022-11-07T03:06:58.917Z,1.30
2022-11-07T03:09:26.317Z,1.30
2022-11-07T03:11:53.702Z,1.30
2022-11-07T03:14:27.968Z,1.60
2022-11-07T03:16:55.364Z,1.30
2022-11-07T03:19:22.740Z,1.60
2022-11-07T03:21:59.898Z,1.50
2022-11-07T03:24:27.736Z,1.40
2022-11-07T03:26:55.147Z,1.77
2022-11-07T03:29:28.925Z,1.60
2022-11-07T03:31:56.301Z,1.83
2022-11-07T03:34:24.484Z,1.50
2022-11-07T03:36:58.905Z,1.30
2022-11-07T03:39:26.273Z,1.90
2022-11-07T03:41:53.669Z,1.53
2022-11-07T03:44:27.890Z,1.70
2022-11-07T03:46:55.255Z,1.57
2022-11-07T03:49:22.664Z,1.60
2022-11-07T03:51:56.888Z,1.67
2022-11-07T03:54:27.147Z,1.53
2022-11-07T03:56:55.678Z,1.10
2022-11-07T03:59:30.959Z,1.53
2022-11-07T04:01:58.411Z,1.50
2022-11-07T04:04:25.857Z,1.53
2022-11-07T04:06:59.970Z,1.20
2022-11-07T04:09:27.381Z,1.70
2022-11-07T04:12:21.382Z,1.20
2022-11-07T04:15:07.188Z,1.67
2022-11-07T04:17:40.955Z,1.30
2022-11-07T04:20:09.169Z,1.50
2022-11-07T04:22:36.661Z,1.80
2022-11-07T04:25:11.966Z,1.40
2022-11-07T04:27:46.915Z,1.73
2022-11-07T04:30:26.967Z,1.87
2022-11-07T04:33:01.515Z,1.80
2022-11-07T04:35:38.981Z,1.50
2022-11-07T04:38:06.347Z,1.60
2022-11-07T04:40:33.830Z,1.80
2022-11-07T04:43:10.966Z,1.60
2022-11-07T04:45:45.997Z,1.20
2022-11-07T04:48:23.939Z,1.67
2022-11-07T04:50:51.694Z,1.47
2022-11-07T04:53:20.410Z,1.60
2022-11-07T04:55:53.995Z,1.73
2022-11-07T04:58:21.458Z,1.50
2022-11-07T05:00:48.905Z,1.77
2022-11-07T05:03:22.973Z,1.33
2022-11-07T05:05:50.397Z,1.57
2022-11-07T05:08:17.897Z,1.47
2022-11-07T05:10:51.970Z,1.60
2022-11-07T05:13:19.414Z,1.43
2022-11-07T05:15:47.414Z,1.80
2022-11-07T05:18:21.093Z,1.67
2022-11-07T05:20:49.448Z,1.60
2022-11-07T05:23:18.801Z,1.60
2022-11-07T05:25:55.957Z,1.60
2022-11-07T05:28:39.040Z,1.50
2022-11-07T05:31:15.028Z,1.47
2022-11-07T05:33:42.936Z,1.83
2022-11-07T05:36:34.984Z,1.90
2022-11-07T05:39:02.351Z,1.63
2022-11-07T05:41:29.826Z,1.60
2022-11-07T05:44:03.965Z,1.80
2022-11-07T05:46:32.609Z,1.40
2022-11-07T05:49:01.318Z,2.00
2022-11-07T05:51:36.125Z,2.20
2022-11-07T05:54:03.613Z,1.50
2022-11-07T05:56:31.159Z,1.70
2022-11-07T05:59:06.014Z,1.40
2022-11-07T06:01:33.838Z,1.50
2022-11-07T06:04:03.295Z,1.33
2022-11-07T06:06:37.995Z,1.70
2022-11-07T06:09:09.857Z,1.80
2022-11-07T06:11:37.417Z,1.70
2022-11-07T06:14:11.227Z,1.77
2022-11-07T06:16:41.273Z,2.13
2022-11-07T06:19:09.127Z,1.27
2022-11-07T06:21:43.088Z,1.63
2022-11-07T06:24:15.082Z,1.60
2022-11-07T06:26:42.871Z,1.93
2022-11-07T06:29:17.080Z,1.60
2022-11-07T06:31:44.790Z,1.50
2022-11-07T06:34:14.064Z,1.60
2022-11-07T06:37:01.542Z,1.80
2022-11-07T06:39:33.547Z,1.63
2022-11-07T06:42:07.069Z,2.07
2022-11-07T06:44:41.393Z,1.73
2022-11-07T06:47:15.097Z,1.97
2022-11-07T06:49:42.986Z,2.30
2022-11-07T06:52:10.835Z,1.90
2022-11-07T06:54:45.183Z,1.77
2022-11-07T06:57:12.838Z,2.00
2022-11-07T06:59:40.566Z,1.83
2022-11-07T07:02:37.160Z,1.97
2022-11-07T07:05:07.494Z,2.80
2022-11-07T07:07:41.123Z,2.20
2022-11-07T07:10:12.079Z,1.83
2022-11-07T07:12:40.568Z,2.00
2022-11-07T07:15:15.093Z,1.73
2022-11-07T07:17:45.190Z,2.20
2022-11-07T07:20:13.064Z,1.90
2022-11-07T07:22:53.295Z,1.93
2022-11-07T07:25:25.307Z,2.00
2022-11-07T07:27:59.497Z,2.00
2022-11-07T07:30:27.081Z,1.90
2022-11-07T07:32:54.557Z,1.97
2022-11-07T07:35:28.543Z,1.60
2022-11-07T07:37:56.164Z,2.10
2022-11-07T07:40:23.879Z,1.90
2022-11-07T07:42:57.534Z,1.80
2022-11-07T07:45:31.739Z,1.50
2022-11-07T07:48:10.873Z,1.80
2022-11-07T07:50:38.803Z,1.80
2022-11-07T07:53:14.024Z,1.87
2022-11-07T07:55:48.474Z,1.87
2022-11-07T07:58:16.651Z,1.50
2022-11-07T08:00:44.249Z,1.77
2022-11-07T08:03:19.725Z,1.60
2022-11-07T08:05:59.426Z,1.80
2022-11-07T08:08:37.982Z,1.77
2022-11-07T08:11:08.841Z,1.92
2022-11-07T08:13:43.523Z,1.52
2022-11-07T08:16:11.132Z,1.48
2022-11-07T08:18:41.297Z,1.75
2022-11-07T08:21:15.542Z,1.63
2022-11-07T08:23:42.972Z,1.60
2022-11-07T08:26:10.706Z,1.65
2022-11-07T08:28:44.499Z,1.40
2022-11-07T08:31:12.772Z,1.45
2022-11-07T08:33:40.290Z,1.65
2022-11-07T08:36:15.536Z,1.50
2022-11-07T08:38:44.179Z,1.50
2022-11-07T08:41:11.731Z,1.90
2022-11-07T08:43:46.568Z,1.30
2022-11-07T08:46:20.926Z,1.30
2022-11-07T08:48:54.507Z,1.40
2022-11-07T08:51:22.079Z,1.60
2022-11-07T08:53:49.659Z,1.88
2022-11-07T08:56:23.508Z,1.40
2022-11-07T08:58:50.971Z,1.50
2022-11-07T09:01:18.927Z,1.40
2022-11-07T09:03:58.029Z,1.38
2022-11-07T09:06:26.310Z,1.45
2022-11-07T09:09:00.573Z,1.45
2022-11-07T09:11:28.677Z,1.63
2022-11-07T09:13:56.412Z,1.10
2022-11-07T09:16:32.854Z,2.38
2022-11-07T09:19:00.489Z,1.65
2022-11-07T09:21:28.008Z,1.23
2022-11-07T09:24:03.493Z,1.45
2022-11-07T09:26:31.169Z,1.50
2022-11-07T09:29:01.316Z,1.42
2022-11-07T09:31:37.679Z,0.88
2022-11-07T09:34:05.257Z,1.40
2022-11-07T09:36:33.044Z,1.42
2022-11-07T09:39:13.136Z,1.90
2022-11-07T09:42:11.858Z,1.50
2022-11-07T09:45:06.157Z,1.50
2022-11-07T09:47:37.878Z,1.17
2022-11-07T09:50:35.278Z,1.08
2022-11-07T09:53:27.553Z,1.20
2022-11-07T09:56:06.509Z,1.58
2022-11-07T09:58:47.429Z,1.45
2022-11-07T10:01:25.549Z,1.40
2022-11-07T10:04:23.004Z,1.30
2022-11-07T10:07:08.389Z,1.60
2022-11-07T10:10:00.556Z,1.38
2022-11-07T10:13:05.422Z,1.30
2022-11-07T10:16:12.209Z,1.30
2022-11-07T10:19:10.466Z,1.00
2022-11-07T10:21:44.568Z,0.98
2022-11-07T10:24:37.461Z,1.00
2022-11-07T10:27:10.735Z,0.90
2022-11-07T10:29:54.445Z,1.25
2022-11-07T10:32:36.333Z,1.40
2022-11-07T10:35:22.438Z,1.52
2022-11-07T10:37:57.960Z,1.45
2022-11-07T10:40:40.465Z,1.20
2022-11-07T10:43:34.235Z,1.50
2022-11-07T10:46:33.034Z,1.80
2022-11-07T10:49:02.318Z,1.40
2022-11-07T10:51:48.011Z,1.27
2022-11-07T10:54:31.531Z,1.05
2022-11-07T10:57:10.975Z,1.25
2022-11-07T10:59:41.588Z,1.30
2022-11-07T11:02:39.074Z,1.50
2022-11-07T11:05:23.132Z,1.30
2022-11-07T11:07:57.108Z,1.08
2022-11-07T11:10:31.233Z,1.15
2022-11-07T11:13:04.977Z,1.42
2022-11-07T11:15:35.911Z,1.20
2022-11-07T11:18:21.038Z,1.10
2022-11-07T11:20:56.684Z,1.13
2022-11-07T11:23:33.974Z,1.25
2022-11-07T11:26:07.249Z,1.00
2022-11-07T11:28:53.053Z,1.17
2022-11-07T11:31:33.299Z,1.23
2022-11-07T11:34:23.138Z,1.42
2022-11-07T11:37:08.342Z,1.65
2022-11-07T11:39:46.994Z,1.30
2022-11-07T11:42:42.378Z,1.10
2022-11-07T11:45:28.226Z,1.17
2022-11-07T11:48:25.046Z,1.25
2022-11-07T11:51:12.988Z,0.93
2022-11-07T11:53:41.301Z,1.25
2022-11-07T11:56:11.905Z,0.98
2022-11-07T11:59:07.963Z,1.08
2022-11-07T12:02:10.086Z,1.00
2022-11-07T12:05:23.973Z,1.17
2022-11-07T12:08:13.497Z,1.50
2022-11-07T12:10:57.188Z,1.20
2022-11-07T12:13:46.463Z,1.20
2022-11-07T12:16:37.347Z,1.30
2022-11-07T12:19:14.579Z,1.85
2022-11-07T12:22:08.980Z,1.38
2022-11-07T12:24:56.607Z,1.02
2022-11-07T12:27:34.288Z,1.17
2022-11-07T12:30:04.766Z,1.35
2022-11-07T12:33:14.194Z,1.02
2022-11-07T12:35:51.627Z,1.10
2022-11-07T12:38:46.046Z,1.00
2022-11-07T12:41:26.562Z,1.20
2022-11-07T12:44:28.992Z,1.25
2022-11-07T12:47:24.163Z,1.45
2022-11-07T12:50:14.121Z,1.30
2022-11-07T12:52:48.736Z,1.02
2022-11-07T12:55:50.304Z,1.42
2022-11-07T12:58:32.168Z,0.93
2022-11-07T13:01:07.101Z,1.50
2022-11-07T13:04:10.119Z,1.25
2022-11-07T13:06:51.115Z,0.93
2022-11-07T13:09:44.824Z,1.17
2022-11-07T13:12:40.998Z,1.20
2022-11-07T13:15:13.318Z,1.20
2022-11-07T13:17:53.037Z,1.10
2022-11-07T13:20:30.813Z,1.17
2022-11-07T13:23:07.041Z,1.27
2022-11-07T13:25:35.400Z,0.88
2022-11-07T13:28:14.073Z,1.35
2022-11-07T13:30:41.715Z,1.20
2022-11-07T13:33:33.997Z,1.02
2022-11-07T13:36:27.352Z,1.00
2022-11-07T13:39:07.959Z,1.10
2022-11-07T13:41:36.572Z,1.17
2022-11-07T13:44:42.131Z,1.35
2022-11-07T13:47:20.181Z,1.50
2022-11-07T13:49:56.155Z,1.50
2022-11-07T13:52:42.458Z,1.30
2022-11-07T13:55:24.112Z,1.10
2022-11-07T13:58:10.185Z,0.85
2022-11-07T14:00:45.159Z,0.98
2022-11-07T14:03:24.778Z,1.17
2022-11-07T14:06:00.118Z,0.93
2022-11-07T14:08:35.197Z,1.00
2022-11-07T14:11:10.131Z,1.50
2022-11-07T14:13:41.532Z,1.08
2022-11-07T14:16:29.090Z,1.23
2022-11-07T14:19:16.523Z,0.90
2022-11-07T14:21:55.069Z,1.27
2022-11-07T14:24:28.738Z,1.15
2022-11-07T14:27:21.249Z,1.30
2022-11-07T14:30:02.550Z,1.60
2022-11-07T14:32:38.064Z,1.75
2022-11-07T14:35:09.138Z,1.95
2022-11-07T14:37:44.113Z,1.90
2022-11-07T14:40:12.800Z,2.10
2022-11-07T14:42:43.417Z,1.75
2022-11-07T14:45:48.543Z,1.30
2022-11-07T14:48:15.306Z,1.25
2022-11-07T14:50:51.281Z,1.10
2022-11-07T14:53:29.207Z,1.38
2022-11-07T14:56:08.132Z,1.10
2022-11-07T14:58:36.996Z,1.40
2022-11-07T15:01:07.714Z,1.50
2022-11-07T15:03:45.919Z,1.33
2022-11-07T15:06:28.706Z,1.25
2022-11-07T15:09:12.304Z,1.30
2022-11-07T15:12:03.165Z,1.38
2022-11-07T15:14:44.338Z,1.60
2022-11-07T15:17:26.511Z,1.10
2022-11-07T15:20:42.825Z,1.20
2022-11-07T15:23:20.380Z,1.20
2022-11-07T15:26:22.327Z,1.30
2022-11-07T15:28:54.791Z,1.27
2022-11-07T15:31:42.255Z,1.20
2022-11-07T15:34:25.307Z,1.00
2022-11-07T15:37:33.279Z,1.45
2022-11-07T15:40:31.949Z,1.83
2022-11-07T15:43:07.297Z,1.30
2022-11-07T15:45:41.949Z,0.90
2022-11-07T15:48:21.503Z,1.30
2022-11-07T15:50:50.266Z,1.25
2022-11-07T15:53:28.026Z,1.30
2022-11-07T15:56:00.608Z,1.10
2022-11-07T15:58:56.022Z,1.20
2022-11-07T16:01:25.481Z,2.03
2022-11-07T16:03:55.107Z,1.20
2022-11-07T16:06:43.503Z,1.30
2022-11-07T16:09:17.769Z,1.17
2022-11-07T16:11:53.120Z,1.20
2022-11-07T16:14:42.775Z,0.90
2022-11-07T16:17:24.084Z,1.40
2022-11-07T16:19:55.253Z,1.20
2022-11-07T16:22:33.302Z,1.05
2022-11-07T16:25:01.368Z,1.40
2022-11-07T16:27:29.149Z,1.30
2022-11-07T16:30:03.352Z,1.13
2022-11-07T16:32:30.966Z,1.30
2022-11-07T16:34:58.816Z,1.10
2022-11-07T16:37:34.429Z,1.60
2022-11-07T16:40:02.129Z,1.40
2022-11-07T16:42:29.681Z,3.40
2022-11-07T16:45:04.034Z,5.57
2022-11-07T16:47:36.441Z,3.53
2022-11-07T16:50:11.286Z,2.80
2022-11-07T16:52:38.736Z,2.05
2022-11-07T16:55:07.247Z,1.40
2022-11-07T16:57:43.140Z,1.30
2022-11-07T17:00:24.448Z,1.73
2022-11-07T17:02:59.357Z,1.90
2022-11-07T17:05:27.164Z,1.80
2022-11-07T17:07:56.018Z,1.70
2022-11-07T17:10:31.032Z,1.40
2022-11-07T17:12:58.433Z,1.77
2022-11-07T17:15:26.170Z,1.67
2022-11-07T17:18:04.606Z,1.93
2022-11-07T17:20:50.355Z,2.03
2022-11-07T17:23:30.262Z,1.85
2022-11-07T17:26:02.647Z,1.77
2022-11-07T17:28:37.022Z,1.83
2022-11-07T17:31:04.460Z,3.00
2022-11-07T17:33:31.932Z,2.20
2022-11-07T17:36:06.104Z,1.80
2022-11-07T17:38:33.584Z,1.70
2022-11-07T17:41:25.017Z,2.25
2022-11-07T17:43:59.223Z,4.47
2022-11-07T17:46:41.059Z,8.15
2022-11-07T17:49:10.390Z,9.20
2022-11-07T17:51:38.051Z,4.20
2022-11-07T17:54:12.105Z,1.70
2022-11-07T17:56:39.960Z,2.00
2022-11-07T17:59:19.090Z,2.45
2022-11-07T18:01:46.909Z,1.67
2022-11-07T18:04:14.742Z,1.65
2022-11-07T18:06:50.108Z,1.97
2022-11-07T18:09:17.575Z,2.03
2022-11-07T18:11:45.544Z,2.00
2022-11-07T18:14:21.102Z,2.00
2022-11-07T18:16:48.621Z,1.80
2022-11-07T18:19:18.731Z,1.40
2022-11-07T18:21:54.316Z,1.60
2022-11-07T18:24:23.568Z,1.60
2022-11-07T18:26:54.825Z,1.70
2022-11-07T18:29:30.866Z,1.90
2022-11-07T18:31:58.285Z,1.60
2022-11-07T18:34:26.049Z,1.67
2022-11-07T18:37:00.139Z,1.50
2022-11-07T18:39:28.950Z,1.50
2022-11-07T18:41:57.143Z,1.53
2022-11-07T18:44:32.634Z,1.77
2022-11-07T18:47:08.325Z,1.83
2022-11-07T18:49:43.680Z,3.00
2022-11-07T18:52:14.451Z,2.93
2022-11-07T18:54:53.492Z,3.67
2022-11-07T18:57:21.210Z,8.00
2022-11-07T18:59:48.988Z,12.03
2022-11-07T19:02:24.348Z,10.07
2022-11-07T19:04:52.357Z,2.43
2022-11-07T19:07:20.077Z,1.90
2022-11-07T19:09:54.070Z,1.60
2022-11-07T19:12:22.367Z,1.50
2022-11-07T19:14:50.501Z,2.00
2022-11-07T19:17:25.273Z,2.10
2022-11-07T19:19:54.112Z,1.70
2022-11-07T19:22:22.308Z,2.23
2022-11-07T19:24:57.225Z,1.50
2022-11-07T19:27:25.197Z,2.23
2022-11-07T19:29:53.818Z,1.43
2022-11-07T19:32:28.186Z,1.57
2022-11-07T19:34:55.835Z,1.33
2022-11-07T19:37:23.696Z,1.50
2022-11-07T19:39:59.465Z,1.73
2022-11-07T19:42:28.824Z,2.90
2022-11-07T19:45:17.130Z,3.00
2022-11-07T19:47:45.329Z,1.60
2022-11-07T19:50:12.950Z,1.60
2022-11-07T19:52:47.462Z,1.77
2022-11-07T19:55:15.525Z,2.10
2022-11-07T19:57:43.100Z,1.57
2022-11-07T20:00:18.189Z,1.50
2022-11-07T20:02:49.589Z,2.60
2022-11-07T20:05:31.215Z,1.80
2022-11-07T20:08:02.317Z,1.40
2022-11-07T20:10:40.269Z,1.57
2022-11-07T20:13:08.980Z,1.27
2022-11-07T20:15:47.264Z,2.10
2022-11-07T20:18:16.315Z,1.80
2022-11-07T20:20:45.148Z,1.37
2022-11-07T20:23:19.782Z,1.97
2022-11-07T20:25:47.959Z,1.77
2022-11-07T20:28:15.843Z,1.43
2022-11-07T20:30:50.379Z,1.80
2022-11-07T20:33:19.377Z,1.40
2022-11-07T20:36:03.379Z,1.70
2022-11-07T20:38:32.340Z,1.70
2022-11-07T20:41:01.654Z,2.00
2022-11-07T20:43:40.212Z,1.40
2022-11-07T20:46:15.658Z,1.60
2022-11-07T20:48:50.135Z,1.80
2022-11-07T20:51:21.184Z,1.40
2022-11-07T20:53:50.826Z,1.70
2022-11-07T20:56:27.208Z,1.63
2022-11-07T20:58:55.755Z,1.30
2022-11-07T21:01:34.646Z,1.57
2022-11-07T21:04:15.602Z,2.00
2022-11-07T21:06:50.266Z,1.67
2022-11-07T21:09:20.098Z,1.50
2022-11-07T21:11:57.119Z,1.50
2022-11-07T21:14:27.330Z,1.57
2022-11-07T21:16:55.269Z,1.67
2022-11-07T21:19:29.461Z,1.57
2022-11-07T21:21:57.059Z,1.80
2022-11-07T21:24:25.768Z,2.40
2022-11-07T21:27:00.140Z,1.40
2022-11-07T21:29:29.927Z,1.50
2022-11-07T21:31:58.204Z,1.53
2022-11-07T21:34:32.294Z,1.50
2022-11-07T21:36:59.889Z,1.50
2022-11-07T21:39:27.714Z,1.40
2022-11-07T21:42:03.074Z,1.60
2022-11-07T21:44:37.380Z,1.40
2022-11-07T21:47:18.353Z,1.70
2022-11-07T21:49:49.841Z,1.80
2022-11-07T21:52:18.250Z,1.70
2022-11-07T21:54:53.568Z,1.13
2022-11-07T21:57:21.342Z,1.30
2022-11-07T21:59:49.149Z,1.50
2022-11-07T22:02:23.486Z,1.40
2022-11-07T22:04:50.996Z,1.20
2022-11-07T22:07:18.436Z,1.30
2022-11-07T22:09:52.128Z,1.50
2022-11-07T22:12:19.977Z,1.43
2022-11-07T22:14:49.189Z,1.60
2022-11-07T22:17:23.092Z,1.73
2022-11-07T22:19:51.722Z,1.57
2022-11-07T22:22:19.335Z,1.30
2022-11-07T22:24:53.154Z,1.83
2022-11-07T22:27:21.460Z,1.10
2022-11-07T22:29:49.894Z,1.40
2022-11-07T22:32:26.469Z,1.40
2022-11-07T22:34:56.659Z,1.30
2022-11-07T22:37:24.232Z,1.30
2022-11-07T22:39:58.091Z,1.40
2022-11-07T22:42:25.501Z,1.67
2022-11-07T22:45:06.091Z,1.60
2022-11-07T22:47:41.257Z,1.47
2022-11-07T22:50:16.114Z,1.63
2022-11-07T22:52:43.823Z,1.50
2022-11-07T22:55:25.182Z,1.50
2022-11-07T22:57:53.419Z,1.43
2022-11-07T23:00:22.055Z,1.60
2022-11-07T23:02:56.151Z,1.60
2022-11-07T23:05:23.789Z,1.53
2022-11-07T23:07:53.012Z,1.30
2022-11-07T23:10:27.106Z,1.40
2022-11-07T23:12:54.527Z,1.60
2022-11-07T23:15:21.927Z,2.33
2022-11-07T23:17:56.094Z,1.30
2022-11-07T23:20:41.931Z,1.50
2022-11-07T23:23:16.104Z,1.37
2022-11-07T23:25:43.514Z,1.40
2022-11-07T23:28:10.886Z,1.30
2022-11-07T23:30:46.099Z,1.43
2022-11-07T23:33:13.581Z,1.40
2022-11-07T23:35:41.052Z,1.20
2022-11-07T23:38:15.470Z,1.33
2022-11-07T23:40:43.235Z,1.40
2022-11-07T23:43:10.794Z,1.10
2022-11-07T23:46:10.099Z,1.50
2022-11-07T23:48:55.870Z,1.10
2022-11-07T23:51:30.187Z,1.53
2022-11-07T23:54:16.685Z,1.43
2022-11-07T23:56:51.107Z,1.40
2022-11-07T23:59:37.263Z,1.07
